sensor_id;sensor_type;location;lat;lon;timestamp;P1;durP1;ratioP1;P2;durP2;ratioP2
41885;SDS011;27567;43.084;25.616;2022-12-07T00:01:45;511.45;;;43.92;;
41885;SDS011;27567;43.084;25.616;2022-12-07T00:04:29;425.30;;;38.65;;
41885;SDS011;27567;43.084;25.616;2022-12-07T00:07:13;442.23;;;39.50;;
41885;SDS011;27567;43.084;25.616;2022-12-07T00:09:57;464.48;;;43.42;;
41885;SDS011;27567;43.084;25.616;2022-12-07T00:12:41;343.40;;;34.90;;
41885;SDS011;27567;43.084;25.616;2022-12-07T00:15:25;430.23;;;42.28;;
41885;SDS011;27567;43.084;25.616;2022-12-07T00:18:09;366.27;;;35.65;;
41885;SDS011;27567;43.084;25.616;2022-12-07T00:20:52;338.98;;;33.95;;
41885;SDS011;27567;43.084;25.616;2022-12-07T00:23:36;329.83;;;34.85;;
41885;SDS011;27567;43.084;25.616;2022-12-07T00:26:22;377.45;;;36.72;;
41885;SDS011;27567;43.084;25.616;2022-12-07T00:29:07;304.77;;;33.33;;
41885;SDS011;27567;43.084;25.616;2022-12-07T00:31:51;333.58;;;36.17;;
41885;SDS011;27567;43.084;25.616;2022-12-07T00:34:35;324.70;;;37.90;;
41885;SDS011;27567;43.084;25.616;2022-12-07T00:37:19;298.05;;;32.67;;
41885;SDS011;27567;43.084;25.616;2022-12-07T00:40:03;321.85;;;36.25;;
41885;SDS011;27567;43.084;25.616;2022-12-07T00:42:47;300.50;;;35.65;;
41885;SDS011;27567;43.084;25.616;2022-12-07T00:45:31;170.98;;;30.25;;
41885;SDS011;27567;43.084;25.616;2022-12-07T00:48:15;338.15;;;34.55;;
41885;SDS011;27567;43.084;25.616;2022-12-07T00:50:59;386.83;;;36.15;;
41885;SDS011;27567;43.084;25.616;2022-12-07T00:53:43;187.98;;;30.80;;
41885;SDS011;27567;43.084;25.616;2022-12-07T00:56:28;306.33;;;38.83;;
41885;SDS011;27567;43.084;25.616;2022-12-07T00:59:12;371.33;;;42.50;;
41885;SDS011;27567;43.084;25.616;2022-12-07T01:01:58;421.95;;;41.05;;
41885;SDS011;27567;43.084;25.616;2022-12-07T01:04:41;404.27;;;41.85;;
41885;SDS011;27567;43.084;25.616;2022-12-07T01:07:25;412.73;;;40.10;;
41885;SDS011;27567;43.084;25.616;2022-12-07T01:10:09;502.15;;;50.65;;
41885;SDS011;27567;43.084;25.616;2022-12-07T01:12:53;147.18;;;29.08;;
41885;SDS011;27567;43.084;25.616;2022-12-07T01:15:41;355.80;;;35.90;;
41885;SDS011;27567;43.084;25.616;2022-12-07T01:18:31;339.17;;;35.00;;
41885;SDS011;27567;43.084;25.616;2022-12-07T01:21:17;255.60;;;29.73;;
41885;SDS011;27567;43.084;25.616;2022-12-07T01:24:02;340.17;;;38.30;;
41885;SDS011;27567;43.084;25.616;2022-12-07T01:26:48;299.73;;;35.28;;
41885;SDS011;27567;43.084;25.616;2022-12-07T01:29:32;333.52;;;31.83;;
41885;SDS011;27567;43.084;25.616;2022-12-07T01:32:16;345.27;;;33.67;;
41885;SDS011;27567;43.084;25.616;2022-12-07T01:35:00;381.95;;;35.90;;
41885;SDS011;27567;43.084;25.616;2022-12-07T01:37:44;460.75;;;37.95;;
41885;SDS011;27567;43.084;25.616;2022-12-07T01:40:27;365.83;;;31.70;;
41885;SDS011;27567;43.084;25.616;2022-12-07T01:43:17;368.77;;;33.42;;
41885;SDS011;27567;43.084;25.616;2022-12-07T01:46:02;349.83;;;30.02;;
41885;SDS011;27567;43.084;25.616;2022-12-07T01:48:47;292.80;;;30.00;;
41885;SDS011;27567;43.084;25.616;2022-12-07T01:51:32;358.83;;;34.38;;
41885;SDS011;27567;43.084;25.616;2022-12-07T01:54:17;504.42;;;36.90;;
41885;SDS011;27567;43.084;25.616;2022-12-07T01:57:01;299.42;;;26.58;;
41885;SDS011;27567;43.084;25.616;2022-12-07T01:59:47;335.17;;;27.90;;
41885;SDS011;27567;43.084;25.616;2022-12-07T02:02:36;336.00;;;26.90;;
41885;SDS011;27567;43.084;25.616;2022-12-07T02:05:21;319.55;;;26.92;;
41885;SDS011;27567;43.084;25.616;2022-12-07T02:08:05;254.95;;;27.08;;
41885;SDS011;27567;43.084;25.616;2022-12-07T02:10:49;295.80;;;27.77;;
41885;SDS011;27567;43.084;25.616;2022-12-07T02:13:34;271.70;;;28.98;;
41885;SDS011;27567;43.084;25.616;2022-12-07T02:31:36;145.13;;;22.08;;
41885;SDS011;27567;43.084;25.616;2022-12-07T02:37:19;165.25;;;21.05;;
41885;SDS011;27567;43.084;25.616;2022-12-07T02:40:07;195.57;;;23.83;;
41885;SDS011;27567;43.084;25.616;2022-12-07T02:43:27;185.80;;;25.65;;
41885;SDS011;27567;43.084;25.616;2022-12-07T02:46:04;174.25;;;19.13;;
41885;SDS011;27567;43.084;25.616;2022-12-07T02:48:49;151.55;;;19.63;;
41885;SDS011;27567;43.084;25.616;2022-12-07T02:51:38;184.77;;;23.77;;
41885;SDS011;27567;43.084;25.616;2022-12-07T02:54:22;379.88;;;31.20;;
41885;SDS011;27567;43.084;25.616;2022-12-07T03:06:08;406.67;;;36.85;;
41885;SDS011;27567;43.084;25.616;2022-12-07T03:14:26;537.10;;;54.03;;
41885;SDS011;27567;43.084;25.616;2022-12-07T03:17:14;495.08;;;45.70;;
41885;SDS011;27567;43.084;25.616;2022-12-07T03:20:02;319.08;;;36.35;;
41885;SDS011;27567;43.084;25.616;2022-12-07T03:23:05;436.08;;;45.40;;
41885;SDS011;27567;43.084;25.616;2022-12-07T03:25:50;746.47;;;60.65;;
41885;SDS011;27567;43.084;25.616;2022-12-07T03:28:38;746.50;;;59.03;;
41885;SDS011;27567;43.084;25.616;2022-12-07T03:31:25;658.33;;;56.92;;
41885;SDS011;27567;43.084;25.616;2022-12-07T03:34:32;747.88;;;65.38;;
41885;SDS011;27567;43.084;25.616;2022-12-07T03:38:02;677.83;;;58.05;;
41885;SDS011;27567;43.084;25.616;2022-12-07T03:40:31;640.10;;;51.65;;
41885;SDS011;27567;43.084;25.616;2022-12-07T03:43:16;920.33;;;63.63;;
41885;SDS011;27567;43.084;25.616;2022-12-07T03:54:24;983.38;;;69.88;;
41885;SDS011;27567;43.084;25.616;2022-12-07T03:57:08;754.97;;;57.30;;
41885;SDS011;27567;43.084;25.616;2022-12-07T03:59:53;676.92;;;52.38;;
41885;SDS011;27567;43.084;25.616;2022-12-07T04:02:38;923.28;;;65.38;;
41885;SDS011;27567;43.084;25.616;2022-12-07T04:05:22;647.75;;;51.10;;
41885;SDS011;27567;43.084;25.616;2022-12-07T04:08:06;570.70;;;48.08;;
41885;SDS011;27567;43.084;25.616;2022-12-07T04:10:50;903.13;;;64.07;;
41885;SDS011;27567;43.084;25.616;2022-12-07T04:13:34;891.40;;;60.83;;
41885;SDS011;27567;43.084;25.616;2022-12-07T04:16:38;702.50;;;49.25;;
41885;SDS011;27567;43.084;25.616;2022-12-07T04:19:23;681.85;;;49.50;;
41885;SDS011;27567;43.084;25.616;2022-12-07T04:22:07;526.10;;;48.50;;
41885;SDS011;27567;43.084;25.616;2022-12-07T04:24:51;469.60;;;45.72;;
41885;SDS011;27567;43.084;25.616;2022-12-07T04:27:35;453.45;;;36.33;;
41885;SDS011;27567;43.084;25.616;2022-12-07T04:30:19;485.85;;;39.33;;
41885;SDS011;27567;43.084;25.616;2022-12-07T04:33:03;692.40;;;57.72;;
41885;SDS011;27567;43.084;25.616;2022-12-07T04:35:47;371.58;;;39.92;;
41885;SDS011;27567;43.084;25.616;2022-12-07T04:38:31;292.50;;;33.85;;
41885;SDS011;27567;43.084;25.616;2022-12-07T04:41:15;344.08;;;38.13;;
41885;SDS011;27567;43.084;25.616;2022-12-07T04:44:00;63.63;;;19.17;;
41885;SDS011;27567;43.084;25.616;2022-12-07T04:46:44;87.22;;;23.50;;
41885;SDS011;27567;43.084;25.616;2022-12-07T04:49:28;132.43;;;32.92;;
41885;SDS011;27567;43.084;25.616;2022-12-07T04:52:12;75.22;;;24.77;;
41885;SDS011;27567;43.084;25.616;2022-12-07T04:54:56;86.65;;;25.92;;
41885;SDS011;27567;43.084;25.616;2022-12-07T04:57:40;79.30;;;22.85;;
41885;SDS011;27567;43.084;25.616;2022-12-07T05:00:24;75.15;;;22.48;;
41885;SDS011;27567;43.084;25.616;2022-12-07T05:03:08;68.50;;;21.52;;
41885;SDS011;27567;43.084;25.616;2022-12-07T05:05:52;60.78;;;21.05;;
41885;SDS011;27567;43.084;25.616;2022-12-07T05:08:36;67.80;;;22.70;;
41885;SDS011;27567;43.084;25.616;2022-12-07T05:11:20;74.25;;;25.35;;
41885;SDS011;27567;43.084;25.616;2022-12-07T05:14:31;71.38;;;24.27;;
41885;SDS011;27567;43.084;25.616;2022-12-07T05:17:14;56.88;;;20.27;;
41885;SDS011;27567;43.084;25.616;2022-12-07T05:19:58;65.90;;;24.15;;
41885;SDS011;27567;43.084;25.616;2022-12-07T05:22:42;66.40;;;24.65;;
41885;SDS011;27567;43.084;25.616;2022-12-07T05:25:26;67.82;;;25.73;;
41885;SDS011;27567;43.084;25.616;2022-12-07T05:28:10;67.53;;;25.90;;
41885;SDS011;27567;43.084;25.616;2022-12-07T05:30:54;83.80;;;26.83;;
41885;SDS011;27567;43.084;25.616;2022-12-07T05:33:38;91.22;;;32.78;;
41885;SDS011;27567;43.084;25.616;2022-12-07T05:36:22;67.32;;;26.67;;
41885;SDS011;27567;43.084;25.616;2022-12-07T05:39:06;71.68;;;26.25;;
41885;SDS011;27567;43.084;25.616;2022-12-07T05:41:51;71.15;;;25.38;;
41885;SDS011;27567;43.084;25.616;2022-12-07T05:45:04;68.65;;;23.35;;
41885;SDS011;27567;43.084;25.616;2022-12-07T05:47:48;72.63;;;22.88;;
41885;SDS011;27567;43.084;25.616;2022-12-07T05:50:32;68.50;;;22.73;;
41885;SDS011;27567;43.084;25.616;2022-12-07T05:53:16;65.93;;;21.33;;
41885;SDS011;27567;43.084;25.616;2022-12-07T05:56:00;95.68;;;35.30;;
41885;SDS011;27567;43.084;25.616;2022-12-07T05:58:44;83.68;;;25.88;;
41885;SDS011;27567;43.084;25.616;2022-12-07T06:01:46;67.85;;;20.83;;
41885;SDS011;27567;43.084;25.616;2022-12-07T06:04:32;64.25;;;21.98;;
41885;SDS011;27567;43.084;25.616;2022-12-07T06:07:16;61.72;;;21.48;;
41885;SDS011;27567;43.084;25.616;2022-12-07T06:10:00;64.78;;;22.30;;
41885;SDS011;27567;43.084;25.616;2022-12-07T06:12:44;131.93;;;38.90;;
41885;SDS011;27567;43.084;25.616;2022-12-07T06:15:29;134.90;;;40.15;;
41885;SDS011;27567;43.084;25.616;2022-12-07T06:18:13;91.03;;;29.17;;
41885;SDS011;27567;43.084;25.616;2022-12-07T06:20:57;71.55;;;26.30;;
41885;SDS011;27567;43.084;25.616;2022-12-07T06:23:41;62.10;;;22.20;;
41885;SDS011;27567;43.084;25.616;2022-12-07T06:26:25;48.83;;;19.70;;
41885;SDS011;27567;43.084;25.616;2022-12-07T06:29:09;45.08;;;18.48;;
41885;SDS011;27567;43.084;25.616;2022-12-07T06:31:53;48.17;;;17.25;;
41885;SDS011;27567;43.084;25.616;2022-12-07T06:34:37;38.03;;;15.82;;
41885;SDS011;27567;43.084;25.616;2022-12-07T06:37:22;41.78;;;18.27;;
41885;SDS011;27567;43.084;25.616;2022-12-07T06:40:06;61.25;;;25.02;;
41885;SDS011;27567;43.084;25.616;2022-12-07T06:42:50;55.72;;;23.83;;
41885;SDS011;27567;43.084;25.616;2022-12-07T06:45:34;59.78;;;25.52;;
41885;SDS011;27567;43.084;25.616;2022-12-07T06:48:18;48.33;;;21.90;;
41885;SDS011;27567;43.084;25.616;2022-12-07T06:51:02;54.42;;;22.27;;
41885;SDS011;27567;43.084;25.616;2022-12-07T06:53:46;59.10;;;22.48;;
41885;SDS011;27567;43.084;25.616;2022-12-07T06:56:30;55.05;;;22.70;;
41885;SDS011;27567;43.084;25.616;2022-12-07T06:59:14;49.97;;;22.08;;
41885;SDS011;27567;43.084;25.616;2022-12-07T07:01:58;42.75;;;16.98;;
41885;SDS011;27567;43.084;25.616;2022-12-07T07:04:42;48.70;;;19.65;;
41885;SDS011;27567;43.084;25.616;2022-12-07T07:07:26;53.90;;;19.98;;
41885;SDS011;27567;43.084;25.616;2022-12-07T07:10:10;52.05;;;19.50;;
41885;SDS011;27567;43.084;25.616;2022-12-07T07:12:54;44.05;;;19.00;;
41885;SDS011;27567;43.084;25.616;2022-12-07T07:15:38;39.55;;;16.35;;
41885;SDS011;27567;43.084;25.616;2022-12-07T07:18:22;40.97;;;15.90;;
41885;SDS011;27567;43.084;25.616;2022-12-07T07:21:06;37.38;;;17.05;;
41885;SDS011;27567;43.084;25.616;2022-12-07T07:23:50;43.30;;;19.42;;
41885;SDS011;27567;43.084;25.616;2022-12-07T07:26:34;45.75;;;19.17;;
41885;SDS011;27567;43.084;25.616;2022-12-07T07:29:18;43.47;;;19.05;;
41885;SDS011;27567;43.084;25.616;2022-12-07T07:32:02;37.55;;;15.43;;
41885;SDS011;27567;43.084;25.616;2022-12-07T07:34:46;44.78;;;16.33;;
41885;SDS011;27567;43.084;25.616;2022-12-07T07:37:30;66.45;;;15.48;;
41885;SDS011;27567;43.084;25.616;2022-12-07T07:40:14;31.13;;;13.50;;
41885;SDS011;27567;43.084;25.616;2022-12-07T07:42:58;44.15;;;15.65;;
41885;SDS011;27567;43.084;25.616;2022-12-07T07:45:42;38.90;;;15.13;;
41885;SDS011;27567;43.084;25.616;2022-12-07T07:48:27;36.78;;;16.67;;
41885;SDS011;27567;43.084;25.616;2022-12-07T07:51:11;52.53;;;19.13;;
41885;SDS011;27567;43.084;25.616;2022-12-07T07:53:55;42.28;;;18.27;;
41885;SDS011;27567;43.084;25.616;2022-12-07T07:56:39;44.05;;;20.75;;
41885;SDS011;27567;43.084;25.616;2022-12-07T07:59:23;42.08;;;19.23;;
41885;SDS011;27567;43.084;25.616;2022-12-07T08:02:15;42.90;;;17.27;;
41885;SDS011;27567;43.084;25.616;2022-12-07T08:05:00;40.70;;;17.60;;
41885;SDS011;27567;43.084;25.616;2022-12-07T08:07:44;35.53;;;17.60;;
41885;SDS011;27567;43.084;25.616;2022-12-07T08:10:28;35.80;;;15.73;;
41885;SDS011;27567;43.084;25.616;2022-12-07T08:13:11;40.13;;;18.17;;
41885;SDS011;27567;43.084;25.616;2022-12-07T08:15:56;33.55;;;14.85;;
41885;SDS011;27567;43.084;25.616;2022-12-07T08:18:41;22.85;;;12.45;;
41885;SDS011;27567;43.084;25.616;2022-12-07T08:21:25;26.63;;;11.80;;
41885;SDS011;27567;43.084;25.616;2022-12-07T08:24:12;27.35;;;13.98;;
41885;SDS011;27567;43.084;25.616;2022-12-07T08:26:56;36.38;;;15.88;;
41885;SDS011;27567;43.084;25.616;2022-12-07T08:29:40;288.10;;;97.32;;
41885;SDS011;27567;43.084;25.616;2022-12-07T08:32:24;72.10;;;25.40;;
41885;SDS011;27567;43.084;25.616;2022-12-07T08:35:08;18.60;;;9.88;;
41885;SDS011;27567;43.084;25.616;2022-12-07T08:37:52;19.63;;;9.93;;
41885;SDS011;27567;43.084;25.616;2022-12-07T08:40:36;43.25;;;20.02;;
41885;SDS011;27567;43.084;25.616;2022-12-07T08:43:20;22.83;;;11.82;;
41885;SDS011;27567;43.084;25.616;2022-12-07T08:49:09;26.98;;;14.32;;
41885;SDS011;27567;43.084;25.616;2022-12-07T08:51:54;141.23;;;43.00;;
41885;SDS011;27567;43.084;25.616;2022-12-07T08:54:39;37.33;;;15.63;;
41885;SDS011;27567;43.084;25.616;2022-12-07T08:57:23;21.85;;;10.88;;
41885;SDS011;27567;43.084;25.616;2022-12-07T09:00:07;22.17;;;12.48;;
41885;SDS011;27567;43.084;25.616;2022-12-07T09:02:51;504.02;;;178.50;;
41885;SDS011;27567;43.084;25.616;2022-12-07T09:05:35;102.07;;;34.50;;
41885;SDS011;27567;43.084;25.616;2022-12-07T09:08:19;745.08;;;272.27;;
41885;SDS011;27567;43.084;25.616;2022-12-07T09:11:04;579.42;;;217.35;;
41885;SDS011;27567;43.084;25.616;2022-12-07T09:13:48;478.60;;;170.18;;
41885;SDS011;27567;43.084;25.616;2022-12-07T09:16:32;210.55;;;73.82;;
41885;SDS011;27567;43.084;25.616;2022-12-07T09:19:16;83.60;;;40.03;;
41885;SDS011;27567;43.084;25.616;2022-12-07T09:22:00;57.03;;;26.65;;
41885;SDS011;27567;43.084;25.616;2022-12-07T09:24:44;169.18;;;71.18;;
41885;SDS011;27567;43.084;25.616;2022-12-07T09:27:29;33.53;;;18.45;;
41885;SDS011;27567;43.084;25.616;2022-12-07T09:30:13;27.20;;;14.43;;
41885;SDS011;27567;43.084;25.616;2022-12-07T09:32:57;45.92;;;20.67;;
41885;SDS011;27567;43.084;25.616;2022-12-07T09:35:45;119.93;;;50.08;;
41885;SDS011;27567;43.084;25.616;2022-12-07T09:38:29;46.55;;;22.27;;
41885;SDS011;27567;43.084;25.616;2022-12-07T09:41:14;189.35;;;78.32;;
41885;SDS011;27567;43.084;25.616;2022-12-07T09:44:06;36.47;;;17.42;;
41885;SDS011;27567;43.084;25.616;2022-12-07T09:46:50;30.20;;;15.32;;
41885;SDS011;27567;43.084;25.616;2022-12-07T09:49:36;27.58;;;14.40;;
41885;SDS011;27567;43.084;25.616;2022-12-07T09:52:25;64.25;;;28.10;;
41885;SDS011;27567;43.084;25.616;2022-12-07T09:55:11;47.45;;;22.02;;
41885;SDS011;27567;43.084;25.616;2022-12-07T09:57:55;38.80;;;18.65;;
41885;SDS011;27567;43.084;25.616;2022-12-07T10:00:40;35.72;;;17.13;;
41885;SDS011;27567;43.084;25.616;2022-12-07T10:03:25;71.78;;;32.30;;
41885;SDS011;27567;43.084;25.616;2022-12-07T10:06:10;51.67;;;22.92;;
41885;SDS011;27567;43.084;25.616;2022-12-07T10:08:54;48.67;;;19.83;;
41885;SDS011;27567;43.084;25.616;2022-12-07T10:14:54;40.13;;;18.15;;
41885;SDS011;27567;43.084;25.616;2022-12-07T10:17:39;32.97;;;16.38;;
41885;SDS011;27567;43.084;25.616;2022-12-07T10:20:24;33.78;;;14.57;;
41885;SDS011;27567;43.084;25.616;2022-12-07T10:23:13;40.58;;;17.52;;
41885;SDS011;27567;43.084;25.616;2022-12-07T10:25:58;37.45;;;16.63;;
41885;SDS011;27567;43.084;25.616;2022-12-07T10:28:41;32.40;;;15.57;;
41885;SDS011;27567;43.084;25.616;2022-12-07T10:31:25;33.92;;;15.43;;
41885;SDS011;27567;43.084;25.616;2022-12-07T10:34:20;32.63;;;17.38;;
41885;SDS011;27567;43.084;25.616;2022-12-07T10:40:01;33.03;;;17.88;;
41885;SDS011;27567;43.084;25.616;2022-12-07T10:42:45;37.95;;;19.30;;
41885;SDS011;27567;43.084;25.616;2022-12-07T11:02:30;35.95;;;19.95;;
41885;SDS011;27567;43.084;25.616;2022-12-07T11:11:29;36.30;;;18.35;;
41885;SDS011;27567;43.084;25.616;2022-12-07T11:14:21;31.10;;;17.52;;
41885;SDS011;27567;43.084;25.616;2022-12-07T11:20:11;37.47;;;19.60;;
41885;SDS011;27567;43.084;25.616;2022-12-07T11:28:59;37.90;;;19.98;;
41885;SDS011;27567;43.084;25.616;2022-12-07T11:37:35;40.30;;;18.02;;
41885;SDS011;27567;43.084;25.616;2022-12-07T11:40:28;28.77;;;16.90;;
41885;SDS011;27567;43.084;25.616;2022-12-07T11:43:15;30.75;;;17.00;;
41885;SDS011;27567;43.084;25.616;2022-12-07T11:46:11;32.30;;;16.67;;
41885;SDS011;27567;43.084;25.616;2022-12-07T11:51:57;21.33;;;14.63;;
41885;SDS011;27567;43.084;25.616;2022-12-07T11:54:42;30.13;;;16.33;;
41885;SDS011;27567;43.084;25.616;2022-12-07T12:00:15;36.80;;;18.67;;
41885;SDS011;27567;43.084;25.616;2022-12-07T12:03:05;29.60;;;16.80;;
41885;SDS011;27567;43.084;25.616;2022-12-07T12:05:53;35.22;;;16.33;;
41885;SDS011;27567;43.084;25.616;2022-12-07T12:08:42;34.92;;;15.68;;
41885;SDS011;27567;43.084;25.616;2022-12-07T12:14:37;30.20;;;14.23;;
41885;SDS011;27567;43.084;25.616;2022-12-07T12:25:58;26.52;;;14.23;;
41885;SDS011;27567;43.084;25.616;2022-12-07T12:31:38;36.00;;;14.50;;
41885;SDS011;27567;43.084;25.616;2022-12-07T12:34:30;23.85;;;13.30;;
41885;SDS011;27567;43.084;25.616;2022-12-07T12:43:00;20.27;;;12.18;;
41885;SDS011;27567;43.084;25.616;2022-12-07T12:45:44;22.95;;;11.00;;
41885;SDS011;27567;43.084;25.616;2022-12-07T12:48:29;21.05;;;12.30;;
41885;SDS011;27567;43.084;25.616;2022-12-07T12:51:38;27.58;;;12.60;;
41885;SDS011;27567;43.084;25.616;2022-12-07T12:54:24;26.08;;;12.45;;
41885;SDS011;27567;43.084;25.616;2022-12-07T13:00:23;21.67;;;10.30;;
41885;SDS011;27567;43.084;25.616;2022-12-07T13:03:26;23.30;;;11.32;;
41885;SDS011;27567;43.084;25.616;2022-12-07T13:09:17;31.23;;;18.63;;
41885;SDS011;27567;43.084;25.616;2022-12-07T13:12:03;32.50;;;20.50;;
41885;SDS011;27567;43.084;25.616;2022-12-07T13:14:53;34.97;;;20.00;;
41885;SDS011;27567;43.084;25.616;2022-12-07T13:20:40;37.40;;;20.25;;
41885;SDS011;27567;43.084;25.616;2022-12-07T13:23:29;40.72;;;20.95;;
41885;SDS011;27567;43.084;25.616;2022-12-07T13:26:20;35.05;;;20.45;;
41885;SDS011;27567;43.084;25.616;2022-12-07T13:29:11;41.53;;;21.45;;
41885;SDS011;27567;43.084;25.616;2022-12-07T13:31:55;35.35;;;21.48;;
41885;SDS011;27567;43.084;25.616;2022-12-07T13:34:41;41.67;;;21.73;;
41885;SDS011;27567;43.084;25.616;2022-12-07T13:40:17;41.10;;;20.95;;
41885;SDS011;27567;43.084;25.616;2022-12-07T13:43:03;36.38;;;21.13;;
41885;SDS011;27567;43.084;25.616;2022-12-07T13:45:47;39.58;;;21.80;;
41885;SDS011;27567;43.084;25.616;2022-12-07T13:48:46;48.45;;;21.83;;
41885;SDS011;27567;43.084;25.616;2022-12-07T13:51:33;41.63;;;19.80;;
41885;SDS011;27567;43.084;25.616;2022-12-07T13:54:18;39.95;;;20.67;;
41885;SDS011;27567;43.084;25.616;2022-12-07T13:57:02;44.50;;;22.15;;
41885;SDS011;27567;43.084;25.616;2022-12-07T13:59:46;37.53;;;19.38;;
41885;SDS011;27567;43.084;25.616;2022-12-07T14:02:34;44.40;;;19.27;;
41885;SDS011;27567;43.084;25.616;2022-12-07T14:05:28;41.15;;;20.30;;
41885;SDS011;27567;43.084;25.616;2022-12-07T14:10:56;36.47;;;18.00;;
41885;SDS011;27567;43.084;25.616;2022-12-07T14:13:45;37.67;;;17.33;;
41885;SDS011;27567;43.084;25.616;2022-12-07T14:16:34;47.05;;;19.23;;
41885;SDS011;27567;43.084;25.616;2022-12-07T14:25:22;36.63;;;17.02;;
41885;SDS011;27567;43.084;25.616;2022-12-07T14:28:09;41.72;;;16.83;;
41885;SDS011;27567;43.084;25.616;2022-12-07T14:31:12;38.40;;;17.45;;
41885;SDS011;27567;43.084;25.616;2022-12-07T14:34:00;34.80;;;17.95;;
41885;SDS011;27567;43.084;25.616;2022-12-07T14:36:44;40.40;;;18.35;;
41885;SDS011;27567;43.084;25.616;2022-12-07T14:39:28;36.10;;;17.02;;
41885;SDS011;27567;43.084;25.616;2022-12-07T14:42:11;42.58;;;18.95;;
41885;SDS011;27567;43.084;25.616;2022-12-07T14:44:56;48.95;;;23.23;;
41885;SDS011;27567;43.084;25.616;2022-12-07T14:47:40;50.20;;;22.73;;
41885;SDS011;27567;43.084;25.616;2022-12-07T14:50:24;54.13;;;27.90;;
41885;SDS011;27567;43.084;25.616;2022-12-07T14:53:12;55.05;;;28.42;;
41885;SDS011;27567;43.084;25.616;2022-12-07T14:55:57;54.22;;;27.35;;
41885;SDS011;27567;43.084;25.616;2022-12-07T14:58:41;63.63;;;26.63;;
41885;SDS011;27567;43.084;25.616;2022-12-07T15:01:25;53.53;;;28.52;;
41885;SDS011;27567;43.084;25.616;2022-12-07T15:04:09;59.92;;;30.25;;
41885;SDS011;27567;43.084;25.616;2022-12-07T15:06:57;57.58;;;28.65;;
41885;SDS011;27567;43.084;25.616;2022-12-07T15:09:41;72.00;;;29.60;;
41885;SDS011;27567;43.084;25.616;2022-12-07T15:12:25;64.65;;;31.95;;
41885;SDS011;27567;43.084;25.616;2022-12-07T15:15:09;63.65;;;32.20;;
41885;SDS011;27567;43.084;25.616;2022-12-07T15:17:53;69.45;;;29.67;;
41885;SDS011;27567;43.084;25.616;2022-12-07T15:20:38;63.55;;;28.15;;
41885;SDS011;27567;43.084;25.616;2022-12-07T15:23:22;52.30;;;23.77;;
41885;SDS011;27567;43.084;25.616;2022-12-07T15:26:06;49.17;;;22.33;;
41885;SDS011;27567;43.084;25.616;2022-12-07T15:28:52;57.05;;;26.10;;
41885;SDS011;27567;43.084;25.616;2022-12-07T15:31:36;59.45;;;28.10;;
41885;SDS011;27567;43.084;25.616;2022-12-07T15:34:20;61.65;;;30.10;;
41885;SDS011;27567;43.084;25.616;2022-12-07T15:37:04;73.50;;;33.72;;
41885;SDS011;27567;43.084;25.616;2022-12-07T15:39:48;72.88;;;36.00;;
41885;SDS011;27567;43.084;25.616;2022-12-07T15:42:32;85.78;;;42.97;;
41885;SDS011;27567;43.084;25.616;2022-12-07T15:45:16;73.60;;;37.42;;
41885;SDS011;27567;43.084;25.616;2022-12-07T15:47:59;66.05;;;31.35;;
41885;SDS011;27567;43.084;25.616;2022-12-07T15:50:43;57.25;;;28.48;;
41885;SDS011;27567;43.084;25.616;2022-12-07T15:53:27;48.97;;;23.20;;
41885;SDS011;27567;43.084;25.616;2022-12-07T15:56:11;50.70;;;21.67;;
41885;SDS011;27567;43.084;25.616;2022-12-07T15:58:56;49.28;;;25.20;;
41885;SDS011;27567;43.084;25.616;2022-12-07T16:01:40;52.78;;;24.10;;
41885;SDS011;27567;43.084;25.616;2022-12-07T16:04:24;57.63;;;26.55;;
41885;SDS011;27567;43.084;25.616;2022-12-07T16:07:08;51.05;;;24.85;;
41885;SDS011;27567;43.084;25.616;2022-12-07T16:09:52;49.40;;;24.55;;
41885;SDS011;27567;43.084;25.616;2022-12-07T16:12:36;46.95;;;25.92;;
41885;SDS011;27567;43.084;25.616;2022-12-07T16:15:20;50.50;;;23.42;;
41885;SDS011;27567;43.084;25.616;2022-12-07T16:18:04;48.28;;;21.27;;
41885;SDS011;27567;43.084;25.616;2022-12-07T16:20:48;37.90;;;18.10;;
41885;SDS011;27567;43.084;25.616;2022-12-07T16:23:33;34.42;;;17.17;;
41885;SDS011;27567;43.084;25.616;2022-12-07T16:26:17;27.38;;;14.18;;
41885;SDS011;27567;43.084;25.616;2022-12-07T16:29:02;34.35;;;16.15;;
41885;SDS011;27567;43.084;25.616;2022-12-07T16:31:46;43.67;;;19.15;;
41885;SDS011;27567;43.084;25.616;2022-12-07T16:34:30;56.72;;;24.88;;
41885;SDS011;27567;43.084;25.616;2022-12-07T16:37:14;39.30;;;20.60;;
41885;SDS011;27567;43.084;25.616;2022-12-07T16:39:58;56.78;;;25.00;;
41885;SDS011;27567;43.084;25.616;2022-12-07T16:42:42;40.67;;;17.80;;
41885;SDS011;27567;43.084;25.616;2022-12-07T16:45:26;35.60;;;17.88;;
41885;SDS011;27567;43.084;25.616;2022-12-07T16:48:10;31.02;;;16.80;;
41885;SDS011;27567;43.084;25.616;2022-12-07T16:50:54;39.33;;;18.65;;
41885;SDS011;27567;43.084;25.616;2022-12-07T16:53:39;38.97;;;17.50;;
41885;SDS011;27567;43.084;25.616;2022-12-07T16:56:23;61.65;;;26.10;;
41885;SDS011;27567;43.084;25.616;2022-12-07T16:59:10;64.13;;;27.77;;
41885;SDS011;27567;43.084;25.616;2022-12-07T17:01:54;62.00;;;26.95;;
41885;SDS011;27567;43.084;25.616;2022-12-07T17:04:38;54.17;;;25.33;;
41885;SDS011;27567;43.084;25.616;2022-12-07T17:07:23;64.47;;;32.70;;
41885;SDS011;27567;43.084;25.616;2022-12-07T17:10:07;108.53;;;52.92;;
41885;SDS011;27567;43.084;25.616;2022-12-07T17:12:51;101.85;;;47.05;;
41885;SDS011;27567;43.084;25.616;2022-12-07T17:15:35;91.43;;;37.47;;
41885;SDS011;27567;43.084;25.616;2022-12-07T17:18:19;92.65;;;40.45;;
41885;SDS011;27567;43.084;25.616;2022-12-07T17:21:07;50.97;;;21.58;;
41885;SDS011;27567;43.084;25.616;2022-12-07T17:23:52;40.55;;;20.10;;
41885;SDS011;27567;43.084;25.616;2022-12-07T17:26:36;43.20;;;22.02;;
41885;SDS011;27567;43.084;25.616;2022-12-07T17:29:20;44.65;;;18.58;;
41885;SDS011;27567;43.084;25.616;2022-12-07T17:32:05;30.88;;;15.02;;
41885;SDS011;27567;43.084;25.616;2022-12-07T17:34:49;40.28;;;18.55;;
41885;SDS011;27567;43.084;25.616;2022-12-07T17:37:33;42.53;;;17.92;;
41885;SDS011;27567;43.084;25.616;2022-12-07T17:40:17;34.47;;;18.90;;
41885;SDS011;27567;43.084;25.616;2022-12-07T17:43:01;41.33;;;20.17;;
41885;SDS011;27567;43.084;25.616;2022-12-07T17:45:45;48.58;;;23.58;;
41885;SDS011;27567;43.084;25.616;2022-12-07T17:48:29;56.03;;;26.27;;
41885;SDS011;27567;43.084;25.616;2022-12-07T17:51:13;49.78;;;24.23;;
41885;SDS011;27567;43.084;25.616;2022-12-07T17:54:16;42.92;;;17.50;;
41885;SDS011;27567;43.084;25.616;2022-12-07T17:57:00;48.35;;;21.63;;
41885;SDS011;27567;43.084;25.616;2022-12-07T17:59:44;30.48;;;15.80;;
41885;SDS011;27567;43.084;25.616;2022-12-07T18:02:28;45.58;;;18.75;;
41885;SDS011;27567;43.084;25.616;2022-12-07T18:05:12;38.15;;;17.10;;
41885;SDS011;27567;43.084;25.616;2022-12-07T18:07:56;33.05;;;15.15;;